sensor_id;sensor_type;location;lat;lon;timestamp;P1;durP1;ratioP1;P2;durP2;ratioP2
22660;SDS011;11497;52.222;21.246;2023-08-20T00:00:11;40.45;;;33.75;;
22660;SDS011;11497;52.222;21.246;2023-08-20T00:03:03;42.33;;;35.97;;
22660;SDS011;11497;52.222;21.246;2023-08-20T00:05:31;42.03;;;34.38;;
22660;SDS011;11497;52.222;21.246;2023-08-20T00:07:59;45.20;;;35.00;;
22660;SDS011;11497;52.222;21.246;2023-08-20T00:10:27;49.15;;;36.08;;
22660;SDS011;11497;52.222;21.246;2023-08-20T00:12:55;40.10;;;34.85;;
22660;SDS011;11497;52.222;21.246;2023-08-20T00:15:22;40.75;;;34.15;;
22660;SDS011;11497;52.222;21.246;2023-08-20T00:17:53;43.80;;;35.38;;
22660;SDS011;11497;52.222;21.246;2023-08-20T00:20:22;41.75;;;35.50;;
22660;SDS011;11497;52.222;21.246;2023-08-20T00:22:50;44.72;;;35.63;;
22660;SDS011;11497;52.222;21.246;2023-08-20T00:25:17;44.50;;;35.17;;
22660;SDS011;11497;52.222;21.246;2023-08-20T00:27:45;46.22;;;36.05;;
22660;SDS011;11497;52.222;21.246;2023-08-20T00:30:13;40.40;;;34.38;;
22660;SDS011;11497;52.222;21.246;2023-08-20T00:32:41;42.80;;;33.42;;
22660;SDS011;11497;52.222;21.246;2023-08-20T00:35:09;44.92;;;33.42;;
22660;SDS011;11497;52.222;21.246;2023-08-20T00:37:37;41.95;;;33.95;;
22660;SDS011;11497;52.222;21.246;2023-08-20T00:40:04;45.63;;;35.22;;
22660;SDS011;11497;52.222;21.246;2023-08-20T00:42:33;45.67;;;35.22;;
22660;SDS011;11497;52.222;21.246;2023-08-20T00:45:00;40.65;;;34.67;;
22660;SDS011;11497;52.222;21.246;2023-08-20T00:47:29;42.75;;;35.70;;
22660;SDS011;11497;52.222;21.246;2023-08-20T00:49:58;43.42;;;35.97;;
22660;SDS011;11497;52.222;21.246;2023-08-20T00:52:26;43.20;;;35.22;;
22660;SDS011;11497;52.222;21.246;2023-08-20T00:54:53;41.33;;;34.60;;
22660;SDS011;11497;52.222;21.246;2023-08-20T00:57:21;38.40;;;34.17;;
22660;SDS011;11497;52.222;21.246;2023-08-20T00:59:49;43.53;;;33.60;;
22660;SDS011;11497;52.222;21.246;2023-08-20T01:02:20;43.28;;;33.35;;
22660;SDS011;11497;52.222;21.246;2023-08-20T01:04:47;41.05;;;33.40;;
22660;SDS011;11497;52.222;21.246;2023-08-20T01:07:23;39.75;;;32.40;;
22660;SDS011;11497;52.222;21.246;2023-08-20T01:12:20;38.40;;;32.13;;
22660;SDS011;11497;52.222;21.246;2023-08-20T01:14:50;39.10;;;31.75;;
22660;SDS011;11497;52.222;21.246;2023-08-20T01:17:18;38.90;;;33.42;;
22660;SDS011;11497;52.222;21.246;2023-08-20T01:19:46;39.80;;;33.13;;
22660;SDS011;11497;52.222;21.246;2023-08-20T01:27:31;40.47;;;33.28;;
22660;SDS011;11497;52.222;21.246;2023-08-20T01:30:02;41.53;;;34.15;;
22660;SDS011;11497;52.222;21.246;2023-08-20T01:32:30;43.80;;;34.30;;
22660;SDS011;11497;52.222;21.246;2023-08-20T01:34:58;41.28;;;33.88;;
22660;SDS011;11497;52.222;21.246;2023-08-20T01:37:27;39.83;;;33.53;;
22660;SDS011;11497;52.222;21.246;2023-08-20T01:39:55;43.67;;;32.83;;
22660;SDS011;11497;52.222;21.246;2023-08-20T01:42:23;41.25;;;33.63;;
22660;SDS011;11497;52.222;21.246;2023-08-20T01:44:52;40.15;;;33.13;;
22660;SDS011;11497;52.222;21.246;2023-08-20T01:47:19;39.78;;;33.58;;
22660;SDS011;11497;52.222;21.246;2023-08-20T01:49:47;39.25;;;32.03;;
22660;SDS011;11497;52.222;21.246;2023-08-20T01:52:15;41.03;;;33.78;;
22660;SDS011;11497;52.222;21.246;2023-08-20T01:54:42;42.58;;;33.95;;
22660;SDS011;11497;52.222;21.246;2023-08-20T01:57:10;43.55;;;34.25;;
22660;SDS011;11497;52.222;21.246;2023-08-20T01:59:37;39.55;;;33.17;;
22660;SDS011;11497;52.222;21.246;2023-08-20T02:02:05;41.13;;;33.95;;
22660;SDS011;11497;52.222;21.246;2023-08-20T02:04:33;40.90;;;33.50;;
22660;SDS011;11497;52.222;21.246;2023-08-20T02:07:01;37.17;;;32.15;;
22660;SDS011;11497;52.222;21.246;2023-08-20T02:09:28;40.67;;;34.22;;
22660;SDS011;11497;52.222;21.246;2023-08-20T02:11:56;38.40;;;32.70;;
22660;SDS011;11497;52.222;21.246;2023-08-20T02:14:23;39.20;;;32.38;;
22660;SDS011;11497;52.222;21.246;2023-08-20T02:16:53;39.28;;;33.42;;
22660;SDS011;11497;52.222;21.246;2023-08-20T02:19:21;42.17;;;33.97;;
22660;SDS011;11497;52.222;21.246;2023-08-20T02:21:49;44.80;;;34.70;;
22660;SDS011;11497;52.222;21.246;2023-08-20T02:24:16;46.83;;;35.10;;
22660;SDS011;11497;52.222;21.246;2023-08-20T02:26:44;40.33;;;33.20;;
22660;SDS011;11497;52.222;21.246;2023-08-20T02:29:11;41.05;;;33.63;;
22660;SDS011;11497;52.222;21.246;2023-08-20T02:31:39;39.92;;;33.75;;
22660;SDS011;11497;52.222;21.246;2023-08-20T02:34:07;41.17;;;34.22;;
22660;SDS011;11497;52.222;21.246;2023-08-20T02:36:35;38.88;;;32.33;;
22660;SDS011;11497;52.222;21.246;2023-08-20T02:39:03;40.85;;;33.78;;
22660;SDS011;11497;52.222;21.246;2023-08-20T02:41:35;39.22;;;33.92;;
22660;SDS011;11497;52.222;21.246;2023-08-20T02:44:02;38.10;;;32.28;;
22660;SDS011;11497;52.222;21.246;2023-08-20T02:46:30;40.35;;;32.90;;
22660;SDS011;11497;52.222;21.246;2023-08-20T02:48:58;39.55;;;33.60;;
22660;SDS011;11497;52.222;21.246;2023-08-20T02:51:27;39.75;;;33.53;;
22660;SDS011;11497;52.222;21.246;2023-08-20T02:53:54;40.03;;;32.92;;
22660;SDS011;11497;52.222;21.246;2023-08-20T02:56:22;40.72;;;32.65;;
22660;SDS011;11497;52.222;21.246;2023-08-20T02:58:50;41.53;;;34.25;;
22660;SDS011;11497;52.222;21.246;2023-08-20T03:01:21;40.10;;;32.85;;
22660;SDS011;11497;52.222;21.246;2023-08-20T03:03:51;40.40;;;32.83;;
22660;SDS011;11497;52.222;21.246;2023-08-20T03:06:19;44.17;;;33.97;;
22660;SDS011;11497;52.222;21.246;2023-08-20T03:08:46;38.88;;;32.47;;
22660;SDS011;11497;52.222;21.246;2023-08-20T03:11:14;41.35;;;33.05;;
22660;SDS011;11497;52.222;21.246;2023-08-20T03:13:42;44.13;;;34.83;;
22660;SDS011;11497;52.222;21.246;2023-08-20T03:16:10;37.92;;;32.70;;
22660;SDS011;11497;52.222;21.246;2023-08-20T03:18:37;42.35;;;33.38;;
22660;SDS011;11497;52.222;21.246;2023-08-20T03:21:05;41.65;;;33.58;;
22660;SDS011;11497;52.222;21.246;2023-08-20T03:23:33;41.28;;;33.35;;
22660;SDS011;11497;52.222;21.246;2023-08-20T03:26:00;42.28;;;34.97;;
22660;SDS011;11497;52.222;21.246;2023-08-20T03:28:29;44.35;;;35.00;;
22660;SDS011;11497;52.222;21.246;2023-08-20T03:31:01;42.58;;;35.55;;
22660;SDS011;11497;52.222;21.246;2023-08-20T03:33:32;45.95;;;34.47;;
22660;SDS011;11497;52.222;21.246;2023-08-20T03:36:01;40.60;;;33.40;;
22660;SDS011;11497;52.222;21.246;2023-08-20T03:38:28;43.40;;;35.00;;
22660;SDS011;11497;52.222;21.246;2023-08-20T03:40:56;48.13;;;35.92;;
22660;SDS011;11497;52.222;21.246;2023-08-20T03:43:25;43.47;;;35.20;;
22660;SDS011;11497;52.222;21.246;2023-08-20T03:45:53;41.13;;;34.95;;
22660;SDS011;11497;52.222;21.246;2023-08-20T03:48:21;40.05;;;34.42;;
22660;SDS011;11497;52.222;21.246;2023-08-20T03:50:49;43.45;;;35.97;;
22660;SDS011;11497;52.222;21.246;2023-08-20T03:53:16;42.72;;;35.28;;
22660;SDS011;11497;52.222;21.246;2023-08-20T03:55:48;41.00;;;33.80;;
22660;SDS011;11497;52.222;21.246;2023-08-20T03:58:16;41.92;;;34.67;;
22660;SDS011;11497;52.222;21.246;2023-08-20T04:00:44;42.67;;;34.47;;
22660;SDS011;11497;52.222;21.246;2023-08-20T04:03:12;41.42;;;34.63;;
22660;SDS011;11497;52.222;21.246;2023-08-20T04:05:41;42.42;;;34.05;;
22660;SDS011;11497;52.222;21.246;2023-08-20T04:08:08;44.58;;;36.03;;
22660;SDS011;11497;52.222;21.246;2023-08-20T04:10:42;44.08;;;34.45;;
22660;SDS011;11497;52.222;21.246;2023-08-20T04:13:09;40.72;;;34.05;;
22660;SDS011;11497;52.222;21.246;2023-08-20T04:15:38;44.17;;;34.10;;
22660;SDS011;11497;52.222;21.246;2023-08-20T04:18:05;39.65;;;33.15;;
22660;SDS011;11497;52.222;21.246;2023-08-20T04:20:33;41.17;;;32.88;;
22660;SDS011;11497;52.222;21.246;2023-08-20T04:23:02;38.50;;;31.25;;
22660;SDS011;11497;52.222;21.246;2023-08-20T04:25:29;36.15;;;30.02;;
22660;SDS011;11497;52.222;21.246;2023-08-20T04:27:57;35.22;;;30.65;;
22660;SDS011;11497;52.222;21.246;2023-08-20T04:30:25;39.72;;;31.17;;
22660;SDS011;11497;52.222;21.246;2023-08-20T04:32:53;33.90;;;28.90;;
22660;SDS011;11497;52.222;21.246;2023-08-20T04:35:21;35.15;;;29.00;;
22660;SDS011;11497;52.222;21.246;2023-08-20T04:37:50;35.08;;;28.80;;
22660;SDS011;11497;52.222;21.246;2023-08-20T04:40:18;35.33;;;29.00;;
22660;SDS011;11497;52.222;21.246;2023-08-20T04:42:45;33.88;;;29.40;;
22660;SDS011;11497;52.222;21.246;2023-08-20T04:45:15;31.70;;;27.65;;
22660;SDS011;11497;52.222;21.246;2023-08-20T04:47:45;30.80;;;27.30;;
22660;SDS011;11497;52.222;21.246;2023-08-20T04:50:14;30.80;;;26.65;;
22660;SDS011;11497;52.222;21.246;2023-08-20T04:52:44;30.77;;;26.63;;
22660;SDS011;11497;52.222;21.246;2023-08-20T04:55:14;30.30;;;27.00;;
22660;SDS011;11497;52.222;21.246;2023-08-20T04:57:43;30.10;;;26.05;;
22660;SDS011;11497;52.222;21.246;2023-08-20T05:00:11;29.38;;;25.92;;
22660;SDS011;11497;52.222;21.246;2023-08-20T05:02:46;27.65;;;24.70;;
22660;SDS011;11497;52.222;21.246;2023-08-20T05:05:17;31.13;;;24.77;;
22660;SDS011;11497;52.222;21.246;2023-08-20T05:07:45;29.02;;;24.33;;
22660;SDS011;11497;52.222;21.246;2023-08-20T05:10:12;32.28;;;25.77;;
22660;SDS011;11497;52.222;21.246;2023-08-20T05:12:40;26.90;;;23.70;;
22660;SDS011;11497;52.222;21.246;2023-08-20T05:15:08;26.92;;;23.13;;
22660;SDS011;11497;52.222;21.246;2023-08-20T05:17:36;29.15;;;24.27;;
22660;SDS011;11497;52.222;21.246;2023-08-20T05:20:05;32.22;;;25.40;;
22660;SDS011;11497;52.222;21.246;2023-08-20T05:22:32;27.88;;;24.23;;
22660;SDS011;11497;52.222;21.246;2023-08-20T05:25:02;28.95;;;25.02;;
22660;SDS011;11497;52.222;21.246;2023-08-20T05:27:30;26.73;;;23.83;;
22660;SDS011;11497;52.222;21.246;2023-08-20T05:29:58;28.27;;;24.33;;
22660;SDS011;11497;52.222;21.246;2023-08-20T05:32:25;29.70;;;23.92;;
22660;SDS011;11497;52.222;21.246;2023-08-20T05:34:53;27.10;;;24.10;;
22660;SDS011;11497;52.222;21.246;2023-08-20T05:37:21;31.77;;;24.73;;
22660;SDS011;11497;52.222;21.246;2023-08-20T05:39:48;29.67;;;25.48;;
22660;SDS011;11497;52.222;21.246;2023-08-20T05:42:16;26.77;;;23.85;;
22660;SDS011;11497;52.222;21.246;2023-08-20T05:44:51;28.92;;;25.20;;
22660;SDS011;11497;52.222;21.246;2023-08-20T05:47:25;29.50;;;25.20;;
22660;SDS011;11497;52.222;21.246;2023-08-20T05:49:54;30.70;;;25.33;;
22660;SDS011;11497;52.222;21.246;2023-08-20T05:52:21;27.38;;;24.58;;
22660;SDS011;11497;52.222;21.246;2023-08-20T05:54:49;26.60;;;23.80;;
22660;SDS011;11497;52.222;21.246;2023-08-20T05:57:17;29.25;;;25.00;;
22660;SDS011;11497;52.222;21.246;2023-08-20T05:59:44;28.23;;;24.45;;
22660;SDS011;11497;52.222;21.246;2023-08-20T06:02:15;25.83;;;23.05;;
22660;SDS011;11497;52.222;21.246;2023-08-20T06:04:46;27.40;;;23.63;;
22660;SDS011;11497;52.222;21.246;2023-08-20T06:07:14;26.77;;;23.88;;
22660;SDS011;11497;52.222;21.246;2023-08-20T06:09:42;26.15;;;22.40;;
22660;SDS011;11497;52.222;21.246;2023-08-20T06:12:10;25.77;;;22.83;;
22660;SDS011;11497;52.222;21.246;2023-08-20T06:14:37;26.55;;;23.15;;
22660;SDS011;11497;52.222;21.246;2023-08-20T06:17:05;26.98;;;23.17;;
22660;SDS011;11497;52.222;21.246;2023-08-20T06:19:33;26.05;;;22.35;;
22660;SDS011;11497;52.222;21.246;2023-08-20T06:22:02;25.13;;;22.23;;
22660;SDS011;11497;52.222;21.246;2023-08-20T06:24:30;23.85;;;20.85;;
22660;SDS011;11497;52.222;21.246;2023-08-20T06:26:58;24.13;;;21.52;;
22660;SDS011;11497;52.222;21.246;2023-08-20T06:29:25;25.33;;;21.23;;
22660;SDS011;11497;52.222;21.246;2023-08-20T06:31:53;23.65;;;21.23;;
22660;SDS011;11497;52.222;21.246;2023-08-20T06:34:21;26.50;;;21.05;;
22660;SDS011;11497;52.222;21.246;2023-08-20T06:36:48;25.15;;;19.95;;
22660;SDS011;11497;52.222;21.246;2023-08-20T06:39:16;22.88;;;20.45;;
22660;SDS011;11497;52.222;21.246;2023-08-20T06:41:46;26.63;;;21.63;;
22660;SDS011;11497;52.222;21.246;2023-08-20T06:44:19;22.10;;;19.65;;
22660;SDS011;11497;52.222;21.246;2023-08-20T06:46:47;21.00;;;18.77;;
22660;SDS011;11497;52.222;21.246;2023-08-20T06:49:15;27.33;;;20.13;;
22660;SDS011;11497;52.222;21.246;2023-08-20T06:51:42;25.63;;;19.70;;
22660;SDS011;11497;52.222;21.246;2023-08-20T06:54:10;22.48;;;20.00;;
22660;SDS011;11497;52.222;21.246;2023-08-20T06:56:37;21.90;;;18.73;;
22660;SDS011;11497;52.222;21.246;2023-08-20T06:59:05;20.50;;;17.40;;
22660;SDS011;11497;52.222;21.246;2023-08-20T07:01:33;20.83;;;16.50;;
22660;SDS011;11497;52.222;21.246;2023-08-20T07:04:01;19.05;;;16.58;;
22660;SDS011;11497;52.222;21.246;2023-08-20T07:06:30;19.75;;;17.70;;
22660;SDS011;11497;52.222;21.246;2023-08-20T07:08:58;19.17;;;17.08;;
22660;SDS011;11497;52.222;21.246;2023-08-20T07:11:25;18.42;;;16.65;;
22660;SDS011;11497;52.222;21.246;2023-08-20T07:13:53;18.45;;;16.58;;
22660;SDS011;11497;52.222;21.246;2023-08-20T07:16:20;19.40;;;17.15;;
22660;SDS011;11497;52.222;21.246;2023-08-20T07:18:48;19.08;;;17.08;;
22660;SDS011;11497;52.222;21.246;2023-08-20T07:21:16;19.50;;;16.52;;
22660;SDS011;11497;52.222;21.246;2023-08-20T07:23:44;17.90;;;15.73;;
22660;SDS011;11497;52.222;21.246;2023-08-20T07:26:11;19.70;;;17.33;;
22660;SDS011;11497;52.222;21.246;2023-08-20T07:28:40;19.98;;;17.02;;
22660;SDS011;11497;52.222;21.246;2023-08-20T07:31:27;17.05;;;15.32;;
22660;SDS011;11497;52.222;21.246;2023-08-20T07:33:55;18.00;;;15.13;;
22660;SDS011;11497;52.222;21.246;2023-08-20T07:36:23;18.67;;;14.10;;
22660;SDS011;11497;52.222;21.246;2023-08-20T07:38:52;17.52;;;14.75;;
22660;SDS011;11497;52.222;21.246;2023-08-20T07:41:20;18.20;;;15.07;;
22660;SDS011;11497;52.222;21.246;2023-08-20T07:43:48;16.17;;;14.48;;
22660;SDS011;11497;52.222;21.246;2023-08-20T07:46:16;15.90;;;14.15;;
22660;SDS011;11497;52.222;21.246;2023-08-20T07:48:44;14.07;;;12.68;;
22660;SDS011;11497;52.222;21.246;2023-08-20T07:51:11;16.35;;;12.40;;
22660;SDS011;11497;52.222;21.246;2023-08-20T07:53:39;13.77;;;12.38;;
22660;SDS011;11497;52.222;21.246;2023-08-20T07:56:07;13.25;;;11.95;;
22660;SDS011;11497;52.222;21.246;2023-08-20T07:58:35;16.42;;;12.07;;
22660;SDS011;11497;52.222;21.246;2023-08-20T08:01:03;13.23;;;11.32;;
22660;SDS011;11497;52.222;21.246;2023-08-20T08:03:31;12.48;;;11.23;;
22660;SDS011;11497;52.222;21.246;2023-08-20T08:05:58;12.55;;;10.63;;
22660;SDS011;11497;52.222;21.246;2023-08-20T08:08:26;11.95;;;10.77;;
22660;SDS011;11497;52.222;21.246;2023-08-20T08:10:54;11.93;;;10.70;;
22660;SDS011;11497;52.222;21.246;2023-08-20T08:13:22;14.07;;;10.80;;
22660;SDS011;11497;52.222;21.246;2023-08-20T08:15:50;13.30;;;10.45;;
22660;SDS011;11497;52.222;21.246;2023-08-20T08:18:19;11.60;;;10.60;;
22660;SDS011;11497;52.222;21.246;2023-08-20T08:20:47;11.15;;;10.05;;
22660;SDS011;11497;52.222;21.246;2023-08-20T08:23:14;13.02;;;10.27;;
22660;SDS011;11497;52.222;21.246;2023-08-20T08:25:42;10.77;;;9.77;;
22660;SDS011;11497;52.222;21.246;2023-08-20T08:28:10;13.30;;;10.10;;
22660;SDS011;11497;52.222;21.246;2023-08-20T08:30:37;10.77;;;9.88;;
22660;SDS011;11497;52.222;21.246;2023-08-20T08:33:06;11.40;;;10.30;;
22660;SDS011;11497;52.222;21.246;2023-08-20T08:35:34;12.50;;;11.25;;
22660;SDS011;11497;52.222;21.246;2023-08-20T08:38:02;11.68;;;10.35;;
22660;SDS011;11497;52.222;21.246;2023-08-20T08:40:31;11.80;;;10.73;;
22660;SDS011;11497;52.222;21.246;2023-08-20T08:43:00;12.65;;;10.75;;
22660;SDS011;11497;52.222;21.246;2023-08-20T08:45:29;12.18;;;10.30;;
22660;SDS011;11497;52.222;21.246;2023-08-20T08:48:01;11.63;;;10.63;;
22660;SDS011;11497;52.222;21.246;2023-08-20T08:50:31;11.13;;;10.13;;
22660;SDS011;11497;52.222;21.246;2023-08-20T08:52:59;11.48;;;10.07;;
22660;SDS011;11497;52.222;21.246;2023-08-20T08:55:27;11.40;;;10.35;;
22660;SDS011;11497;52.222;21.246;2023-08-20T08:57:55;11.65;;;10.55;;
22660;SDS011;11497;52.222;21.246;2023-08-20T09:00:22;14.70;;;11.40;;
22660;SDS011;11497;52.222;21.246;2023-08-20T09:02:49;12.02;;;10.80;;
22660;SDS011;11497;52.222;21.246;2023-08-20T09:05:17;12.75;;;11.07;;
22660;SDS011;11497;52.222;21.246;2023-08-20T09:07:45;11.27;;;10.20;;
22660;SDS011;11497;52.222;21.246;2023-08-20T09:10:13;14.13;;;10.73;;
22660;SDS011;11497;52.222;21.246;2023-08-20T09:12:45;11.10;;;10.20;;
22660;SDS011;11497;52.222;21.246;2023-08-20T09:15:15;11.88;;;10.60;;
22660;SDS011;11497;52.222;21.246;2023-08-20T09:17:42;11.23;;;9.95;;
22660;SDS011;11497;52.222;21.246;2023-08-20T09:20:10;10.40;;;9.50;;
22660;SDS011;11497;52.222;21.246;2023-08-20T09:22:38;10.95;;;9.90;;
22660;SDS011;11497;52.222;21.246;2023-08-20T09:25:05;10.68;;;9.27;;
22660;SDS011;11497;52.222;21.246;2023-08-20T09:27:39;10.32;;;9.15;;
22660;SDS011;11497;52.222;21.246;2023-08-20T09:30:08;10.60;;;9.50;;
22660;SDS011;11497;52.222;21.246;2023-08-20T09:32:37;11.18;;;9.95;;
22660;SDS011;11497;52.222;21.246;2023-08-20T09:35:05;10.20;;;9.30;;
22660;SDS011;11497;52.222;21.246;2023-08-20T09:37:33;12.25;;;10.15;;
22660;SDS011;11497;52.222;21.246;2023-08-20T09:40:01;10.85;;;9.88;;
22660;SDS011;11497;52.222;21.246;2023-08-20T09:42:30;11.52;;;10.07;;
22660;SDS011;11497;52.222;21.246;2023-08-20T09:44:59;10.35;;;9.45;;
22660;SDS011;11497;52.222;21.246;2023-08-20T09:47:28;10.80;;;9.82;;
22660;SDS011;11497;52.222;21.246;2023-08-20T09:49:56;12.27;;;10.20;;
22660;SDS011;11497;52.222;21.246;2023-08-20T09:53:03;10.38;;;9.40;;
22660;SDS011;11497;52.222;21.246;2023-08-20T09:55:20;12.75;;;10.25;;
22660;SDS011;11497;52.222;21.246;2023-08-20T09:57:49;11.60;;;9.50;;
22660;SDS011;11497;52.222;21.246;2023-08-20T10:00:17;11.45;;;9.93;;
22660;SDS011;11497;52.222;21.246;2023-08-20T10:02:44;10.98;;;9.98;;
22660;SDS011;11497;52.222;21.246;2023-08-20T10:05:12;10.98;;;9.88;;
22660;SDS011;11497;52.222;21.246;2023-08-20T10:07:42;12.48;;;10.55;;
22660;SDS011;11497;52.222;21.246;2023-08-20T10:10:10;11.40;;;10.20;;
22660;SDS011;11497;52.222;21.246;2023-08-20T10:12:40;11.60;;;10.52;;
22660;SDS011;11497;52.222;21.246;2023-08-20T10:15:13;11.63;;;10.52;;
22660;SDS011;11497;52.222;21.246;2023-08-20T10:17:41;11.18;;;10.07;;
22660;SDS011;11497;52.222;21.246;2023-08-20T10:20:09;14.57;;;10.80;;
22660;SDS011;11497;52.222;21.246;2023-08-20T10:22:38;12.70;;;9.85;;
22660;SDS011;11497;52.222;21.246;2023-08-20T10:25:06;11.85;;;10.75;;
22660;SDS011;11497;52.222;21.246;2023-08-20T10:27:35;11.57;;;10.38;;
22660;SDS011;11497;52.222;21.246;2023-08-20T10:30:10;12.80;;;11.05;;
22660;SDS011;11497;52.222;21.246;2023-08-20T10:32:49;11.75;;;10.27;;
22660;SDS011;11497;52.222;21.246;2023-08-20T10:35:17;13.00;;;11.73;;
22660;SDS011;11497;52.222;21.246;2023-08-20T10:40:48;15.02;;;11.57;;
22660;SDS011;11497;52.222;21.246;2023-08-20T10:49:01;13.52;;;11.90;;
22660;SDS011;11497;52.222;21.246;2023-08-20T10:51:33;12.70;;;11.38;;
22660;SDS011;11497;52.222;21.246;2023-08-20T10:56:39;14.10;;;11.13;;
22660;SDS011;11497;52.222;21.246;2023-08-20T11:01:42;12.60;;;11.50;;
22660;SDS011;11497;52.222;21.246;2023-08-20T11:04:10;12.77;;;11.48;;
22660;SDS011;11497;52.222;21.246;2023-08-20T11:06:38;13.55;;;12.18;;
22660;SDS011;11497;52.222;21.246;2023-08-20T11:09:06;14.30;;;12.85;;
22660;SDS011;11497;52.222;21.246;2023-08-20T11:11:34;13.55;;;12.20;;
22660;SDS011;11497;52.222;21.246;2023-08-20T11:14:05;12.98;;;11.60;;
22660;SDS011;11497;52.222;21.246;2023-08-20T11:16:36;14.75;;;12.43;;
22660;SDS011;11497;52.222;21.246;2023-08-20T11:19:04;13.20;;;11.90;;
22660;SDS011;11497;52.222;21.246;2023-08-20T11:21:39;15.20;;;12.82;;
22660;SDS011;11497;52.222;21.246;2023-08-20T11:24:07;13.15;;;11.85;;
22660;SDS011;11497;52.222;21.246;2023-08-20T11:26:35;14.27;;;12.18;;
22660;SDS011;11497;52.222;21.246;2023-08-20T11:29:12;13.50;;;12.15;;
22660;SDS011;11497;52.222;21.246;2023-08-20T11:31:40;13.93;;;11.63;;
22660;SDS011;11497;52.222;21.246;2023-08-20T11:34:08;13.73;;;11.55;;
22660;SDS011;11497;52.222;21.246;2023-08-20T11:36:36;16.02;;;10.75;;
22660;SDS011;11497;52.222;21.246;2023-08-20T11:39:06;14.48;;;11.27;;
22660;SDS011;11497;52.222;21.246;2023-08-20T11:41:37;12.75;;;11.63;;
22660;SDS011;11497;52.222;21.246;2023-08-20T11:44:05;17.33;;;14.15;;
22660;SDS011;11497;52.222;21.246;2023-08-20T11:46:41;14.88;;;13.02;;
22660;SDS011;11497;52.222;21.246;2023-08-20T11:49:10;13.13;;;11.80;;
22660;SDS011;11497;52.222;21.246;2023-08-20T11:51:39;13.75;;;12.30;;
22660;SDS011;11497;52.222;21.246;2023-08-20T11:54:08;14.05;;;12.70;;
22660;SDS011;11497;52.222;21.246;2023-08-20T11:56:35;13.00;;;11.68;;
22660;SDS011;11497;52.222;21.246;2023-08-20T11:59:05;12.65;;;11.38;;
22660;SDS011;11497;52.222;21.246;2023-08-20T12:01:38;12.63;;;11.43;;
22660;SDS011;11497;52.222;21.246;2023-08-20T12:04:06;12.35;;;11.05;;
22660;SDS011;11497;52.222;21.246;2023-08-20T12:06:35;12.30;;;11.10;;
22660;SDS011;11497;52.222;21.246;2023-08-20T12:09:21;13.25;;;12.10;;
22660;SDS011;11497;52.222;21.246;2023-08-20T12:11:49;13.45;;;12.05;;
22660;SDS011;11497;52.222;21.246;2023-08-20T12:14:20;22.60;;;16.63;;
22660;SDS011;11497;52.222;21.246;2023-08-20T12:16:47;24.77;;;14.10;;
22660;SDS011;11497;52.222;21.246;2023-08-20T12:19:17;15.82;;;12.50;;
22660;SDS011;11497;52.222;21.246;2023-08-20T12:21:45;12.32;;;11.13;;
22660;SDS011;11497;52.222;21.246;2023-08-20T12:24:13;12.45;;;11.20;;
22660;SDS011;11497;52.222;21.246;2023-08-20T12:26:41;14.65;;;12.38;;
22660;SDS011;11497;52.222;21.246;2023-08-20T12:29:09;14.13;;;12.57;;
22660;SDS011;11497;52.222;21.246;2023-08-20T12:31:37;18.10;;;11.98;;
22660;SDS011;11497;52.222;21.246;2023-08-20T12:34:05;12.93;;;11.30;;
22660;SDS011;11497;52.222;21.246;2023-08-20T12:36:33;13.55;;;12.07;;
22660;SDS011;11497;52.222;21.246;2023-08-20T12:39:00;23.83;;;21.52;;
22660;SDS011;11497;52.222;21.246;2023-08-20T12:41:30;15.20;;;13.25;;
22660;SDS011;11497;52.222;21.246;2023-08-20T12:43:59;250.27;;;111.60;;
22660;SDS011;11497;52.222;21.246;2023-08-20T12:46:26;147.80;;;53.20;;
22660;SDS011;11497;52.222;21.246;2023-08-20T12:48:54;101.45;;;63.95;;
22660;SDS011;11497;52.222;21.246;2023-08-20T12:51:22;148.00;;;72.30;;
22660;SDS011;11497;52.222;21.246;2023-08-20T12:53:50;185.25;;;85.30;;
22660;SDS011;11497;52.222;21.246;2023-08-20T12:56:17;39.13;;;26.25;;
22660;SDS011;11497;52.222;21.246;2023-08-20T12:58:45;16.17;;;13.70;;
22660;SDS011;11497;52.222;21.246;2023-08-20T13:01:12;18.48;;;13.70;;
22660;SDS011;11497;52.222;21.246;2023-08-20T13:03:41;15.20;;;13.80;;
22660;SDS011;11497;52.222;21.246;2023-08-20T13:06:08;16.25;;;14.52;;
22660;SDS011;11497;52.222;21.246;2023-08-20T13:08:36;15.35;;;13.85;;
22660;SDS011;11497;52.222;21.246;2023-08-20T13:11:04;16.17;;;13.68;;
22660;SDS011;11497;52.222;21.246;2023-08-20T13:13:34;16.30;;;14.60;;
22660;SDS011;11497;52.222;21.246;2023-08-20T13:16:01;15.23;;;13.63;;
22660;SDS011;11497;52.222;21.246;2023-08-20T13:18:29;15.70;;;14.10;;
22660;SDS011;11497;52.222;21.246;2023-08-20T13:20:57;17.02;;;14.95;;
22660;SDS011;11497;52.222;21.246;2023-08-20T13:23:25;16.40;;;14.80;;
22660;SDS011;11497;52.222;21.246;2023-08-20T13:25:52;16.58;;;15.00;;
22660;SDS011;11497;52.222;21.246;2023-08-20T13:28:20;16.10;;;14.60;;
22660;SDS011;11497;52.222;21.246;2023-08-20T13:30:48;16.70;;;14.93;;
22660;SDS011;11497;52.222;21.246;2023-08-20T13:33:16;16.33;;;14.77;;
22660;SDS011;11497;52.222;21.246;2023-08-20T13:35:43;18.15;;;15.95;;
22660;SDS011;11497;52.222;21.246;2023-08-20T13:38:11;16.70;;;15.05;;
22660;SDS011;11497;52.222;21.246;2023-08-20T13:40:39;19.50;;;15.55;;
22660;SDS011;11497;52.222;21.246;2023-08-20T13:43:07;17.80;;;16.10;;
22660;SDS011;11497;52.222;21.246;2023-08-20T13:45:35;17.92;;;16.02;;
22660;SDS011;11497;52.222;21.246;2023-08-20T13:48:04;17.58;;;15.20;;
22660;SDS011;11497;52.222;21.246;2023-08-20T13:50:31;17.38;;;15.88;;
22660;SDS011;11497;52.222;21.246;2023-08-20T13:52:59;16.67;;;15.05;;
22660;SDS011;11497;52.222;21.246;2023-08-20T13:55:27;16.98;;;14.48;;
22660;SDS011;11497;52.222;21.246;2023-08-20T13:57:57;15.80;;;14.20;;
22660;SDS011;11497;52.222;21.246;2023-08-20T14:00:25;16.40;;;13.95;;
22660;SDS011;11497;52.222;21.246;2023-08-20T14:02:53;15.55;;;13.95;;
22660;SDS011;11497;52.222;21.246;2023-08-20T14:05:21;15.57;;;14.07;;
22660;SDS011;11497;52.222;21.246;2023-08-20T14:07:49;16.30;;;14.60;;
22660;SDS011;11497;52.222;21.246;2023-08-20T14:10:17;16.00;;;14.38;;
22660;SDS011;11497;52.222;21.246;2023-08-20T14:12:44;14.80;;;13.40;;
22660;SDS011;11497;52.222;21.246;2023-08-20T14:15:12;14.23;;;12.93;;
22660;SDS011;11497;52.222;21.246;2023-08-20T14:17:40;14.30;;;12.80;;
22660;SDS011;11497;52.222;21.246;2023-08-20T14:20:07;13.98;;;12.50;;
22660;SDS011;11497;52.222;21.246;2023-08-20T14:22:38;14.25;;;12.80;;
22660;SDS011;11497;52.222;21.246;2023-08-20T14:25:06;14.52;;;13.07;;
22660;SDS011;11497;52.222;21.246;2023-08-20T14:27:33;15.20;;;13.27;;
22660;SDS011;11497;52.222;21.246;2023-08-20T14:30:01;14.35;;;12.85;;
22660;SDS011;11497;52.222;21.246;2023-08-20T14:32:29;13.60;;;12.18;;
22660;SDS011;11497;52.222;21.246;2023-08-20T14:34:57;14.02;;;12.73;;
22660;SDS011;11497;52.222;21.246;2023-08-20T14:37:26;14.63;;;12.18;;